Terminal Aerodrome Forecast
Issued by NWS Atlanta, GA

Home | Current Version | Previous Version | Text Only | Print | Product List | Glossary On
Versions: 1 2 3 4 5 6 7 8 9 10 11 12
000
FTUS42 KFFC 201144
TAFMCN
TAF
KMCN 201144Z 2012/2112 00000KT P6SM FEW250
     FM201500 26003KT P6SM SCT040
     FM202000 30005KT P6SM SCT050
     FM202300 25003KT P6SM BKN060
     FM210700 00000KT P6SM SCT090
     FM210900 00000KT 5SM BR SCT070=

USA.gov is the U.S. government's official web portal to all federal, state and local government web resources and services.